createdAt,value
2022-10-13T00:01:59.658Z,26.87
2022-10-13T00:07:37.740Z,28.30
2022-10-13T00:13:15.988Z,30.30
2022-10-13T00:18:52.311Z,26.70
2022-10-13T00:21:40.529Z,32.33
2022-10-13T00:27:11.813Z,31.07
2022-10-13T00:32:48.012Z,33.70
2022-10-13T00:35:37.966Z,33.77
2022-10-13T00:41:06.490Z,31.43
2022-10-13T00:46:40.988Z,36.03
2022-10-13T00:49:30.388Z,31.43
2022-10-13T00:55:12.451Z,31.60
2022-10-13T01:01:02.371Z,27.97
2022-10-13T01:06:38.456Z,28.40
2022-10-13T01:15:14.689Z,25.57
2022-10-13T01:21:06.246Z,25.77
2022-10-13T01:24:24.067Z,27.87
2022-10-13T01:27:43.223Z,28.50
2022-10-13T01:33:30.713Z,25.27
2022-10-13T01:39:10.993Z,30.17
2022-10-13T01:47:42.378Z,30.43
2022-10-13T01:50:32.023Z,28.27
2022-10-13T01:53:21.210Z,34.30
2022-10-13T01:59:01.879Z,33.73
2022-10-13T02:01:57.421Z,30.67
2022-10-13T02:10:23.983Z,32.90
2022-10-13T02:16:03.437Z,29.30
2022-10-13T02:21:37.482Z,30.80
2022-10-13T02:24:28.054Z,31.03
2022-10-13T02:27:16.261Z,29.13
2022-10-13T02:32:52.885Z,27.03
2022-10-13T02:35:41.120Z,26.60
2022-10-13T02:38:31.553Z,31.97
2022-10-13T02:44:14.061Z,25.93
2022-10-13T02:50:03.782Z,31.17
2022-10-13T02:52:53.039Z,26.93
2022-10-13T02:58:28.346Z,36.13
2022-10-13T03:04:08.123Z,29.17
2022-10-13T03:09:39.547Z,27.90
2022-10-13T03:15:15.246Z,30.63
2022-10-13T03:21:02.460Z,32.83
2022-10-13T03:23:51.514Z,34.70
2022-10-13T03:29:30.067Z,37.67
2022-10-13T03:32:19.618Z,36.83
2022-10-13T03:38:07.854Z,37.07
2022-10-13T03:43:46.057Z,38.87
2022-10-13T03:49:18.761Z,35.47
2022-10-13T03:52:09.632Z,36.63
2022-10-13T03:57:45.775Z,39.37
2022-10-13T04:03:24.249Z,39.57
2022-10-13T04:06:12.992Z,36.40
2022-10-13T04:09:01.783Z,40.50
2022-10-13T04:14:50.466Z,41.33
2022-10-13T04:20:27.248Z,45.13
2022-10-13T04:25:59.936Z,37.27
2022-10-13T04:31:38.445Z,37.60
2022-10-13T04:34:27.763Z,37.30
2022-10-13T04:40:17.989Z,35.73
2022-10-13T04:43:07.124Z,37.70
2022-10-13T04:52:32.897Z,34.23
2022-10-13T04:58:03.070Z,33.33
2022-10-13T05:03:39.969Z,30.93
2022-10-13T05:09:30.582Z,39.33
2022-10-13T05:15:15.865Z,31.27
2022-10-13T05:20:47.602Z,30.83
2022-10-13T05:23:35.925Z,35.93
2022-10-13T05:26:27.594Z,37.83
2022-10-13T05:32:01.762Z,35.83
2022-10-13T05:37:35.149Z,33.53
2022-10-13T05:43:10.763Z,29.47
2022-10-13T05:48:41.409Z,29.13
2022-10-13T05:57:15.450Z,32.27
2022-10-13T06:03:03.213Z,30.70
2022-10-13T06:05:54.337Z,29.77
2022-10-13T06:08:42.613Z,27.53
2022-10-13T06:14:18.693Z,30.90
2022-10-13T06:17:07.104Z,31.43
2022-10-13T06:22:58.311Z,30.57
2022-10-13T06:26:01.807Z,26.77
2022-10-13T06:28:59.155Z,25.53
2022-10-13T06:32:19.843Z,27.50
2022-10-13T06:35:10.230Z,28.80
2022-10-13T06:40:55.105Z,32.13
2022-10-13T06:43:46.664Z,26.47
2022-10-13T06:49:36.420Z,25.83
2022-10-13T06:52:24.892Z,29.83
2022-10-13T06:55:14.817Z,26.53
2022-10-13T06:58:03.812Z,28.30
2022-10-13T07:01:00.685Z,28.20
2022-10-13T07:06:33.458Z,30.53
2022-10-13T07:12:03.591Z,27.57
2022-10-13T07:14:51.491Z,24.33
2022-10-13T07:20:32.778Z,26.20
2022-10-13T07:26:09.942Z,27.53
2022-10-13T07:28:58.329Z,24.10
2022-10-13T07:31:48.282Z,29.20
2022-10-13T07:37:26.070Z,21.17
2022-10-13T07:40:14.810Z,29.17
2022-10-13T07:46:04.995Z,23.67
2022-10-13T07:54:33.880Z,23.03
2022-10-13T08:00:06.920Z,23.97
2022-10-13T08:02:56.061Z,21.27
2022-10-13T08:05:43.887Z,26.87
2022-10-13T08:08:32.211Z,26.83
2022-10-13T08:11:21.351Z,20.83
2022-10-13T08:16:58.306Z,24.43
2022-10-13T08:22:35.329Z,24.37
2022-10-13T08:28:13.268Z,22.20
2022-10-13T08:31:03.252Z,22.47
2022-10-13T08:33:52.532Z,27.83
2022-10-13T08:39:30.737Z,17.47
2022-10-13T08:48:00.593Z,15.87
2022-10-13T08:50:52.122Z,16.70
2022-10-13T08:56:28.514Z,16.50
2022-10-13T09:01:59.580Z,16.07
2022-10-13T09:07:35.145Z,19.70
2022-10-13T09:13:13.691Z,16.33
2022-10-13T09:16:03.129Z,16.23
2022-10-13T09:21:32.640Z,16.70
2022-10-13T09:24:22.871Z,14.90
2022-10-13T09:30:11.798Z,17.63
2022-10-13T09:36:17.402Z,17.00
2022-10-13T09:39:16.940Z,20.07
2022-10-13T09:45:16.880Z,16.77
2022-10-13T09:50:57.952Z,15.77
2022-10-13T09:56:39.462Z,14.47
2022-10-13T10:02:24.987Z,16.53
2022-10-13T10:08:33.814Z,15.33
2022-10-13T10:14:12.728Z,13.90
2022-10-13T10:19:56.839Z,16.70
2022-10-13T10:25:42.340Z,15.57
2022-10-13T10:31:38.478Z,11.63
2022-10-13T10:37:26.256Z,20.47
2022-10-13T10:40:22.290Z,14.67
2022-10-13T10:46:27.860Z,15.40
2022-10-13T10:49:18.484Z,13.00
2022-10-13T10:54:57.278Z,15.83
2022-10-13T11:00:38.579Z,12.03
2022-10-13T11:06:26.802Z,16.43
2022-10-13T11:12:00.891Z,17.93
2022-10-13T11:20:56.290Z,17.90
2022-10-13T11:23:50.345Z,19.50
2022-10-13T11:29:55.017Z,20.07
2022-10-13T11:35:36.760Z,17.17
2022-10-13T11:41:14.291Z,13.27
2022-10-13T11:44:04.804Z,18.90
2022-10-13T11:50:00.329Z,17.20
2022-10-13T11:55:50.917Z,16.20
2022-10-13T12:01:25.831Z,15.07
2022-10-13T12:07:19.031Z,18.83
2022-10-13T12:18:28.725Z,18.80
2022-10-13T12:21:20.850Z,15.67
2022-10-13T12:26:59.022Z,17.83
2022-10-13T12:32:36.095Z,13.27
2022-10-13T12:38:16.195Z,15.63
2022-10-13T12:43:45.872Z,15.70
2022-10-13T12:52:16.655Z,13.90
2022-10-13T12:57:45.957Z,14.23
2022-10-13T13:03:25.232Z,15.40
2022-10-13T13:09:29.397Z,16.53
2022-10-13T13:15:49.045Z,17.50
2022-10-13T13:21:24.623Z,13.33
2022-10-13T13:24:28.304Z,18.93
2022-10-13T13:29:48.925Z,12.03
2022-10-13T13:35:23.776Z,13.93
2022-10-13T13:41:00.114Z,13.43
2022-10-13T13:52:05.438Z,17.57
2022-10-13T13:57:34.319Z,14.43
2022-10-13T14:03:09.000Z,15.13
2022-10-13T14:08:43.192Z,17.40
2022-10-13T14:14:21.701Z,14.27
2022-10-13T14:19:50.906Z,13.53
2022-10-13T14:25:26.151Z,17.70
2022-10-13T14:31:00.915Z,15.83
2022-10-13T14:36:36.407Z,16.33
2022-10-13T14:39:24.767Z,15.30
2022-10-13T14:44:55.949Z,14.53
2022-10-13T14:50:31.829Z,14.27
2022-10-13T14:56:18.561Z,15.83
2022-10-13T15:01:53.799Z,16.77
2022-10-13T15:07:27.859Z,14.80
2022-10-13T15:13:04.380Z,14.60
2022-10-13T15:18:39.504Z,14.83
2022-10-13T15:24:16.202Z,12.53
2022-10-13T15:27:07.684Z,14.33
2022-10-13T15:32:44.287Z,13.60
2022-10-13T15:38:14.759Z,15.57
2022-10-13T15:43:50.527Z,13.83
2022-10-13T15:49:24.566Z,16.00
2022-10-13T15:57:43.267Z,13.47
2022-10-13T16:03:18.808Z,14.23
2022-10-13T16:08:52.305Z,16.07
2022-10-13T16:11:40.737Z,15.53
2022-10-13T16:17:21.639Z,19.03
2022-10-13T16:23:00.802Z,20.60
2022-10-13T16:28:29.569Z,16.87
2022-10-13T16:34:06.234Z,17.07
2022-10-13T16:36:54.827Z,14.33
2022-10-13T16:45:10.081Z,15.83
2022-10-13T16:50:48.213Z,16.50
2022-10-13T16:53:36.582Z,19.30
2022-10-13T16:56:27.377Z,16.83
2022-10-13T16:59:15.959Z,19.77
2022-10-13T17:02:04.329Z,22.60
2022-10-13T17:04:52.895Z,16.87
2022-10-13T17:07:41.205Z,19.63
2022-10-13T17:13:16.513Z,21.80
2022-10-13T17:18:56.436Z,22.37
2022-10-13T17:21:46.893Z,25.90
2022-10-13T17:27:27.278Z,21.60
2022-10-13T17:33:04.821Z,23.77
2022-10-13T17:35:57.319Z,20.53
2022-10-13T17:41:29.769Z,23.03
2022-10-13T17:47:02.109Z,18.67
2022-10-13T17:52:39.605Z,21.33
2022-10-13T17:55:30.798Z,19.33
2022-10-13T18:01:13.222Z,21.90
2022-10-13T18:04:22.466Z,20.77
2022-10-13T18:09:58.395Z,20.00
2022-10-13T18:12:47.233Z,20.50
2022-10-13T18:15:39.724Z,18.07
2022-10-13T18:21:18.540Z,21.90
2022-10-13T18:27:34.276Z,20.27
2022-10-13T18:33:20.132Z,15.63
2022-10-13T18:36:17.301Z,13.77
2022-10-13T18:41:51.055Z,14.77
2022-10-13T18:47:28.043Z,13.30
2022-10-13T18:53:04.640Z,13.57
2022-10-13T18:56:01.851Z,12.67
2022-10-13T18:58:56.982Z,14.87
2022-10-13T19:01:45.372Z,11.70
2022-10-13T19:04:34.433Z,13.37
2022-10-13T19:10:15.323Z,13.93
2022-10-13T19:22:10.448Z,14.20
2022-10-13T19:27:53.152Z,15.97
2022-10-13T19:30:43.033Z,12.27
2022-10-13T19:36:28.511Z,10.50
2022-10-13T19:42:17.508Z,14.27
2022-10-13T19:48:07.739Z,13.87
2022-10-13T19:50:56.400Z,12.60
2022-10-13T19:53:45.828Z,12.40
2022-10-13T19:59:48.012Z,13.20
2022-10-13T20:05:36.143Z,15.47
2022-10-13T20:11:23.727Z,13.50
2022-10-13T20:14:09.819Z,20.77
2022-10-13T20:19:44.891Z,14.90
2022-10-13T20:25:48.157Z,19.53
2022-10-13T20:28:41.901Z,13.20
2022-10-13T20:34:38.938Z,19.23
2022-10-13T20:40:21.167Z,15.60
2022-10-13T20:46:15.080Z,15.37
2022-10-13T20:52:09.591Z,17.03
2022-10-13T20:57:46.483Z,17.17
2022-10-13T21:03:20.392Z,16.90
2022-10-13T21:12:08.955Z,16.40
2022-10-13T21:17:42.784Z,15.97
2022-10-13T21:20:33.761Z,17.10
2022-10-13T21:26:08.132Z,16.40
2022-10-13T21:31:52.265Z,16.90
2022-10-13T21:37:22.661Z,13.53
2022-10-13T21:42:53.129Z,16.20
2022-10-13T21:45:43.329Z,15.97
2022-10-13T21:51:20.551Z,14.47
2022-10-13T21:56:54.336Z,15.87
2022-10-13T22:02:29.797Z,12.80
2022-10-13T22:08:17.765Z,14.90
2022-10-13T22:11:11.695Z,12.60
2022-10-13T22:14:00.967Z,14.57
2022-10-13T22:19:42.895Z,13.33
2022-10-13T22:22:31.652Z,14.43
2022-10-13T22:28:15.721Z,14.63
2022-10-13T22:33:54.767Z,13.77
2022-10-13T22:39:27.549Z,13.63
2022-10-13T22:44:57.279Z,17.30
2022-10-13T22:47:45.383Z,15.50
2022-10-13T22:53:21.484Z,17.07
2022-10-13T22:56:12.196Z,17.10
2022-10-13T22:59:02.083Z,14.07
2022-10-13T23:04:36.012Z,12.80
2022-10-13T23:10:13.237Z,14.07
2022-10-13T23:15:50.239Z,11.90
2022-10-13T23:24:14.407Z,11.43
2022-10-13T23:29:50.689Z,16.43
2022-10-13T23:35:27.949Z,15.30
2022-10-13T23:41:08.219Z,14.07
2022-10-13T23:46:45.463Z,15.37
2022-10-13T23:49:33.986Z,12.93
2022-10-13T23:55:14.730Z,13.80
